Time;durP1;ratioP1;P1;durP2;ratioP2;P2;SDS_P1;SDS_P2;PMS_P1;PMS_P2;Temp;Humidity;BMP_temperature;BMP_pressure;BME280_temperature;BME280_humidity;BME280_pressure;Samples;Min_cycle;Max_cycle;Signal;HPM_P1;HPM_P2
2021/11/11 20:43:21;;;;;;;3.55;2.62;;;1.90;99.90;;;;;;3857385;37;20448;-74
2021/11/11 21:01:39;;;;;;;4.32;2.78;;;1.60;99.90;;;;;;4392568;32;20172;-73
2021/11/11 21:04:05;;;;;;;5.30;2.70;;;1.40;99.90;;;;;;4390791;32;20076;-73
2021/11/11 21:12:37;;;;;;;6.93;3.72;;;0.70;99.90;;;;;;4347442;32;20105;-74
2021/11/11 21:17:45;;;;;;;5.85;3.28;;;0.40;99.90;;;;;;4390122;32;20100;-73
2021/11/11 21:20:14;;;;;;;7.57;3.67;;;0.30;99.90;;;;;;4378851;32;20128;-73
2021/11/11 21:22:42;;;;;;;5.82;3.87;;;0.30;99.90;;;;;;4402539;32;20511;-74
2021/11/11 21:25:10;;;;;;;6.30;3.40;;;0.20;99.90;;;;;;4389969;32;20540;-74
2021/11/11 21:27:38;;;;;;;4.80;3.03;;;0.20;99.90;;;;;;4390088;32;20090;-74
2021/11/11 21:30:06;;;;;;;4.35;2.95;;;0.30;99.90;;;;;;4377521;32;20523;-74
2021/11/11 21:32:33;;;;;;;5.47;3.00;;;0.20;99.90;;;;;;4390422;32;20083;-73
2021/11/11 21:37:37;;;;;;;4.68;2.90;;;0.20;99.90;;;;;;4403550;32;20119;-74
2021/11/11 21:40:08;;;;;;;5.90;3.22;;;0.30;99.90;;;;;;4390555;32;20177;-74
2021/11/11 21:42:34;;;;;;;6.57;3.37;;;0.30;99.90;;;;;;4402421;32;20088;-75
2021/11/11 21:45:02;;;;;;;5.12;3.40;;;0.30;99.90;;;;;;4402008;32;20069;-75
2021/11/11 21:47:29;;;;;;;4.80;3.10;;;0.30;99.90;;;;;;4401944;32;20077;-73
2021/11/11 21:49:55;;;;;;;6.15;3.25;;;0.30;99.90;;;;;;4389786;32;20096;-74
2021/11/11 21:52:23;;;;;;;4.20;3.30;;;0.30;99.90;;;;;;4399947;32;20082;-74
2021/11/11 21:55:00;;;;;;;6.05;3.67;;;0.40;99.90;;;;;;4391989;32;20082;-75
2021/11/11 21:57:31;;;;;;;;;;;0.40;99.90;;;;;;4392677;32;20104;-75
2021/11/11 22:29:26;;;;;;;6.28;3.67;;;0.10;99.90;;;;;;4391869;32;20241;-74
2021/11/11 22:32:05;;;;;;;5.85;3.53;;;0.10;99.90;;;;;;4380985;32;20172;-74
2021/11/11 22:36:59;;;;;;;6.28;3.60;;;0.10;99.90;;;;;;4391374;32;20097;-74
2021/11/11 22:39:27;;;;;;;6.47;3.60;;;0.10;99.90;;;;;;4366655;32;20090;-74
2021/11/11 22:41:53;;;;;;;5.68;3.55;;;0.10;99.90;;;;;;4390815;32;20558;-74
2021/11/11 22:44:20;;;;;;;6.20;3.95;;;0.10;99.90;;;;;;4391096;32;20093;-73
2021/11/11 22:46:46;;;;;;;7.28;3.97;;;0.10;99.90;;;;;;4378834;32;20097;-74
2021/11/11 22:49:12;;;;;;;4.40;3.20;;;0.10;99.90;;;;;;4379019;32;20084;-74
2021/11/11 22:51:39;;;;;;;6.90;3.55;;;0.10;99.90;;;;;;4391652;32;20150;-74
2021/11/11 22:54:21;;;;;;;6.80;4.03;;;0.20;99.90;;;;;;4390963;32;20160;-74
2021/11/11 22:56:55;;;;;;;4.68;3.47;;;0.10;99.90;;;;;;4391307;32;20222;-75
2021/11/11 23:12:33;;;;;;;5.80;3.50;;;0.30;99.90;;;;;;4391206;32;20077;-74
2021/11/11 23:17:50;;;;;;;4.90;3.30;;;0.30;99.90;;;;;;4390816;32;20089;-73
2021/11/11 23:23:16;;;;;;;5.68;3.30;;;0.40;99.90;;;;;;4380444;32;20154;-75
2021/11/11 23:33:41;;;;;;;5.40;3.50;;;0.40;99.90;;;;;;4380645;32;20151;-75
2021/11/11 23:36:08;;;;;;;6.78;3.47;;;0.40;99.90;;;;;;4390776;32;20077;-74
2021/11/11 23:38:35;;;;;;;6.30;3.70;;;0.40;99.90;;;;;;4378269;32;20074;-74
2021/11/11 23:41:02;;;;;;;5.32;3.90;;;0.40;99.90;;;;;;4390531;32;20093;-74
2021/11/11 23:43:28;;;;;;;5.82;3.70;;;0.40;99.90;;;;;;4378370;32;20584;-75
2021/11/11 23:49:05;;;;;;;6.55;3.70;;;0.40;99.90;;;;;;4335818;33;20120;-73
2021/11/11 23:51:58;;;;;;;6.25;4.05;;;0.40;99.90;;;;;;4344521;33;20086;-73
